createdAt,value
2023-01-08T00:01:18.546Z,0.55
2023-01-08T00:03:46.018Z,0.44
2023-01-08T00:06:15.474Z,0.43
2023-01-08T00:08:42.526Z,0.27
2023-01-08T00:11:13.493Z,0.19
2023-01-08T00:13:40.364Z,0.49
2023-01-08T00:16:09.613Z,0.50
2023-01-08T00:18:36.480Z,0.45
2023-01-08T00:21:04.368Z,0.29
2023-01-08T00:23:31.625Z,0.29
2023-01-08T00:26:01.286Z,0.20
2023-01-08T00:28:30.387Z,0.14
2023-01-08T00:30:57.348Z,0.07
2023-01-08T00:33:24.287Z,0.11
2023-01-08T00:35:51.101Z,0.11
2023-01-08T00:38:18.059Z,0.14
2023-01-08T00:40:44.848Z,0.21
2023-01-08T00:43:11.748Z,0.51
2023-01-08T00:45:39.877Z,0.36
2023-01-08T00:48:07.776Z,0.33
2023-01-08T00:50:34.521Z,0.45
2023-01-08T00:53:01.791Z,0.29
2023-01-08T00:55:28.679Z,0.32
2023-01-08T00:57:55.667Z,0.19
2023-01-08T01:00:22.657Z,0.18
2023-01-08T01:02:50.867Z,0.12
2023-01-08T01:05:19.358Z,0.15
2023-01-08T01:07:46.514Z,0.15
2023-01-08T01:10:15.795Z,0.21
2023-01-08T01:12:43.092Z,0.50
2023-01-08T01:15:12.357Z,0.40
2023-01-08T01:17:40.080Z,0.26
2023-01-08T01:20:10.991Z,0.19
2023-01-08T01:22:38.463Z,0.10
2023-01-08T01:25:06.668Z,0.11
2023-01-08T01:27:33.463Z,0.06
2023-01-08T01:30:03.653Z,0.09
2023-01-08T01:32:30.483Z,0.21
2023-01-08T01:34:57.409Z,0.22
2023-01-08T01:37:25.601Z,0.20
2023-01-08T01:39:52.347Z,0.19
2023-01-08T01:42:20.334Z,0.68
2023-01-08T01:44:49.697Z,0.41
2023-01-08T01:47:24.009Z,0.22
2023-01-08T01:49:57.820Z,0.13
2023-01-08T01:52:30.347Z,0.21
2023-01-08T01:55:01.014Z,0.22
2023-01-08T01:57:28.964Z,0.27
2023-01-08T01:59:58.967Z,0.23
2023-01-08T02:02:26.117Z,0.38
2023-01-08T02:04:53.179Z,0.25
2023-01-08T02:07:32.148Z,0.26
2023-01-08T02:10:07.447Z,0.14
2023-01-08T02:12:38.805Z,0.10
2023-01-08T02:15:12.975Z,0.05
2023-01-08T02:20:15.919Z,0.03
2023-01-08T02:23:06.516Z,0.70
2023-01-08T02:25:51.290Z,0.46
2023-01-08T02:28:19.171Z,0.29
2023-01-08T02:30:46.202Z,0.20
2023-01-08T02:33:14.579Z,0.31
2023-01-08T02:35:44.943Z,0.31
2023-01-08T02:38:14.575Z,0.26
2023-01-08T02:40:52.793Z,0.35
2023-01-08T02:43:26.811Z,0.28
2023-01-08T02:45:58.261Z,0.45
2023-01-08T02:48:33.784Z,0.30
2023-01-08T02:51:06.217Z,0.49
2023-01-08T02:53:37.637Z,0.51
2023-01-08T02:56:09.511Z,0.32
2023-01-08T02:58:38.811Z,0.45
2023-01-08T03:01:09.325Z,0.33
2023-01-08T03:03:38.760Z,0.31
2023-01-08T03:06:09.140Z,1.18
2023-01-08T03:08:39.967Z,0.82
2023-01-08T03:11:11.548Z,2.53
2023-01-08T03:13:42.543Z,1.86
2023-01-08T03:16:14.527Z,1.32
2023-01-08T03:18:46.992Z,0.75
2023-01-08T03:21:16.543Z,0.44
2023-01-08T03:23:47.257Z,0.29
2023-01-08T03:26:21.677Z,0.43
2023-01-08T03:28:52.996Z,0.42
2023-01-08T03:31:22.961Z,0.58
2023-01-08T03:33:50.545Z,0.59
2023-01-08T03:36:24.271Z,0.78
2023-01-08T03:38:59.712Z,0.64
2023-01-08T03:41:31.643Z,0.47
2023-01-08T03:43:58.589Z,0.32
2023-01-08T03:46:31.680Z,0.27
2023-01-08T03:49:00.019Z,0.47
2023-01-08T03:51:27.437Z,0.64
2023-01-08T03:53:58.736Z,0.43
2023-01-08T03:56:27.179Z,0.42
2023-01-08T03:58:54.025Z,0.40
2023-01-08T04:01:22.084Z,0.68
2023-01-08T04:03:48.875Z,0.55
2023-01-08T04:06:18.731Z,0.75
2023-01-08T04:08:47.613Z,0.96
2023-01-08T04:11:15.486Z,1.10
2023-01-08T04:13:43.743Z,0.85
2023-01-08T04:16:11.979Z,0.73
2023-01-08T04:18:38.936Z,0.60
2023-01-08T04:21:07.262Z,0.62
2023-01-08T04:23:34.067Z,1.28
2023-01-08T04:26:04.690Z,0.79
2023-01-08T04:28:31.510Z,0.81
2023-01-08T04:30:59.804Z,0.68
2023-01-08T04:33:26.995Z,1.00
2023-01-08T04:35:53.888Z,1.69
2023-01-08T04:38:24.491Z,1.38
2023-01-08T04:40:56.592Z,1.16
2023-01-08T04:43:23.565Z,1.05
2023-01-08T04:45:50.330Z,1.49
2023-01-08T04:48:20.108Z,1.91
2023-01-08T04:50:46.851Z,1.63
2023-01-08T04:53:15.026Z,1.68
2023-01-08T04:55:41.783Z,1.55
2023-01-08T04:58:09.006Z,1.76
2023-01-08T05:00:36.167Z,1.30
2023-01-08T05:03:03.009Z,1.16
2023-01-08T05:05:31.249Z,1.39
2023-01-08T05:07:59.149Z,1.66
2023-01-08T05:10:26.044Z,1.41
2023-01-08T05:12:53.133Z,1.51
2023-01-08T05:15:19.884Z,1.52
2023-01-08T05:17:47.906Z,2.13
2023-01-08T05:20:14.810Z,2.48
2023-01-08T05:22:43.074Z,1.86
2023-01-08T05:25:10.188Z,1.52
2023-01-08T05:27:36.980Z,1.74
2023-01-08T05:30:07.328Z,1.61
2023-01-08T05:32:35.497Z,3.13
2023-01-08T05:35:02.604Z,3.37
2023-01-08T05:37:29.344Z,3.02
2023-01-08T05:39:57.720Z,2.53
2023-01-08T05:42:24.843Z,1.97
2023-01-08T05:44:52.712Z,2.16
2023-01-08T05:47:19.468Z,3.76
2023-01-08T05:49:46.311Z,3.56
2023-01-08T05:52:13.148Z,3.37
2023-01-08T05:54:39.929Z,2.51
2023-01-08T05:57:08.095Z,2.20
2023-01-08T05:59:34.986Z,2.29
2023-01-08T06:02:02.864Z,4.07
2023-01-08T06:04:31.067Z,3.59
2023-01-08T06:06:59.011Z,3.53
2023-01-08T06:09:26.084Z,3.52
2023-01-08T06:11:52.984Z,2.37
2023-01-08T06:14:21.119Z,1.84
2023-01-08T06:16:48.108Z,2.77
2023-01-08T06:19:15.985Z,2.95
2023-01-08T06:21:44.024Z,3.29
2023-01-08T06:24:10.898Z,2.91
2023-01-08T06:26:38.850Z,2.55
2023-01-08T06:29:05.678Z,3.80
2023-01-08T06:31:34.061Z,3.34
2023-01-08T06:34:01.883Z,3.63
2023-01-08T06:36:31.532Z,3.31
2023-01-08T06:38:58.311Z,3.37
2023-01-08T06:41:25.525Z,3.51
2023-01-08T06:43:52.520Z,2.48
2023-01-08T06:46:19.535Z,2.37
2023-01-08T06:48:48.796Z,2.45
2023-01-08T06:51:19.143Z,2.48
2023-01-08T06:53:47.900Z,2.60
2023-01-08T06:56:14.741Z,2.61
2023-01-08T06:58:42.911Z,2.51
2023-01-08T07:01:14.298Z,2.50
2023-01-08T07:03:42.993Z,2.19
2023-01-08T07:06:16.784Z,2.10
2023-01-08T07:08:45.035Z,1.80
2023-01-08T07:11:12.609Z,1.79
2023-01-08T07:13:39.609Z,2.80
2023-01-08T07:16:06.980Z,2.53
2023-01-08T07:18:34.179Z,2.50
2023-01-08T07:21:01.423Z,2.62
2023-01-08T07:23:29.917Z,2.58
2023-01-08T07:26:00.644Z,2.49
2023-01-08T07:28:27.659Z,2.42
2023-01-08T07:30:54.450Z,3.20
2023-01-08T07:33:22.782Z,3.01
2023-01-08T07:35:53.204Z,2.83
2023-01-08T07:38:21.324Z,2.00
2023-01-08T07:40:53.233Z,2.10
2023-01-08T07:43:20.278Z,3.19
2023-01-08T07:45:48.485Z,2.35
2023-01-08T07:48:15.251Z,2.12
2023-01-08T07:50:43.257Z,2.31
2023-01-08T07:53:11.420Z,2.18
2023-01-08T07:55:38.469Z,2.47
2023-01-08T07:58:13.502Z,1.83
2023-01-08T08:00:42.312Z,1.92
2023-01-08T08:03:12.691Z,2.08
2023-01-08T08:05:40.837Z,1.95
2023-01-08T08:08:08.659Z,2.04
2023-01-08T08:10:36.112Z,4.25
2023-01-08T08:13:03.107Z,7.73
2023-01-08T08:15:31.320Z,7.92
2023-01-08T08:17:58.089Z,6.77
2023-01-08T08:20:27.156Z,4.43
2023-01-08T08:23:01.146Z,3.52
2023-01-08T08:25:28.104Z,2.63
2023-01-08T08:27:56.734Z,4.58
2023-01-08T08:30:24.918Z,5.06
2023-01-08T08:32:53.344Z,3.80
2023-01-08T08:35:24.196Z,3.15
2023-01-08T08:37:51.327Z,2.29
2023-01-08T08:40:19.457Z,2.25
2023-01-08T08:42:48.817Z,3.09
2023-01-08T08:45:15.881Z,2.22
2023-01-08T08:47:42.654Z,1.71
2023-01-08T08:50:14.845Z,1.29
2023-01-08T08:52:42.925Z,1.36
2023-01-08T08:55:12.433Z,1.44
2023-01-08T08:57:40.493Z,1.25
2023-01-08T09:00:08.393Z,1.54
2023-01-08T09:02:35.573Z,1.48
2023-01-08T09:05:02.485Z,1.28
2023-01-08T09:07:30.723Z,1.48
2023-01-08T09:09:59.055Z,1.11
2023-01-08T09:12:27.040Z,1.12
2023-01-08T09:14:55.419Z,1.54
2023-01-08T09:17:22.566Z,1.34
2023-01-08T09:19:49.754Z,1.32
2023-01-08T09:22:16.543Z,1.17
2023-01-08T09:24:44.776Z,0.95
2023-01-08T09:27:11.820Z,1.00
2023-01-08T09:29:38.841Z,1.27
2023-01-08T09:32:06.218Z,1.11
2023-01-08T09:34:33.365Z,1.54
2023-01-08T09:37:00.286Z,1.16
2023-01-08T09:39:30.134Z,0.81
2023-01-08T09:42:01.074Z,1.27
2023-01-08T09:44:34.107Z,1.09
2023-01-08T09:47:01.372Z,0.91
2023-01-08T09:49:37.640Z,1.14
2023-01-08T09:52:13.808Z,1.35
2023-01-08T09:54:44.569Z,1.45
2023-01-08T09:57:17.111Z,1.53
2023-01-08T09:59:44.635Z,1.57
2023-01-08T10:02:15.325Z,1.22
2023-01-08T10:04:43.876Z,1.33
2023-01-08T10:07:18.171Z,0.94
2023-01-08T10:09:46.390Z,1.31
2023-01-08T10:12:24.773Z,1.04
2023-01-08T10:17:37.055Z,1.04
2023-01-08T10:20:12.208Z,1.26
2023-01-08T10:22:41.655Z,1.01
2023-01-08T10:25:11.832Z,0.90
2023-01-08T10:27:48.363Z,0.95
2023-01-08T10:30:17.472Z,1.16
2023-01-08T10:32:48.517Z,0.86
2023-01-08T10:35:22.271Z,0.91
2023-01-08T10:37:49.150Z,1.10
2023-01-08T10:40:26.392Z,0.96
2023-01-08T10:42:56.341Z,0.98
2023-01-08T10:45:26.015Z,1.02
2023-01-08T10:47:57.016Z,1.23
2023-01-08T10:50:29.114Z,0.85
2023-01-08T10:52:58.018Z,0.72
2023-01-08T10:55:28.633Z,0.85
2023-01-08T10:58:01.916Z,1.47
2023-01-08T11:00:30.356Z,1.94
2023-01-08T11:03:01.609Z,1.58
2023-01-08T11:05:31.187Z,2.05
2023-01-08T11:08:01.997Z,2.08
2023-01-08T11:10:29.902Z,2.09
2023-01-08T11:13:04.998Z,1.57
2023-01-08T11:15:36.318Z,1.25
2023-01-08T11:18:12.796Z,1.06
2023-01-08T11:20:40.339Z,0.86
2023-01-08T11:23:16.817Z,0.65
2023-01-08T11:25:49.057Z,0.57
2023-01-08T11:28:25.336Z,0.47
2023-01-08T11:31:00.849Z,0.53
2023-01-08T11:33:34.040Z,0.51
2023-01-08T11:36:09.372Z,0.40
2023-01-08T11:38:38.298Z,0.40
2023-01-08T11:41:19.828Z,0.40
2023-01-08T11:44:06.088Z,0.62
2023-01-08T11:46:42.075Z,0.74
2023-01-08T11:49:28.444Z,0.77
2023-01-08T11:52:15.660Z,0.91
2023-01-08T11:55:13.613Z,0.80
2023-01-08T11:57:56.830Z,0.61
2023-01-08T12:00:38.256Z,0.70
2023-01-08T12:03:16.269Z,0.51
2023-01-08T12:05:47.982Z,0.62
2023-01-08T12:08:24.164Z,0.61
2023-01-08T12:11:03.216Z,0.51
2023-01-08T12:13:58.285Z,0.42
2023-01-08T12:16:44.133Z,0.32
2023-01-08T12:19:20.729Z,0.38
2023-01-08T12:22:01.479Z,0.34
2023-01-08T12:24:51.070Z,0.32
2023-01-08T12:27:54.673Z,0.50
2023-01-08T12:30:25.428Z,0.36
2023-01-08T12:32:58.366Z,1.19
2023-01-08T12:35:30.041Z,0.87
2023-01-08T12:38:07.260Z,0.63
2023-01-08T12:40:39.577Z,0.70
2023-01-08T12:43:15.082Z,0.57
2023-01-08T12:45:46.911Z,0.52
2023-01-08T12:48:19.641Z,0.47
2023-01-08T12:50:57.603Z,0.44
2023-01-08T12:53:38.326Z,0.47
2023-01-08T12:56:11.231Z,1.32
2023-01-08T12:58:50.366Z,0.81
2023-01-08T13:01:29.577Z,0.54
2023-01-08T13:03:59.140Z,0.43
2023-01-08T13:06:27.084Z,0.37
2023-01-08T13:08:56.266Z,0.46
2023-01-08T13:11:29.589Z,0.64
2023-01-08T13:14:01.818Z,0.70
2023-01-08T13:16:42.464Z,0.62
2023-01-08T13:19:24.930Z,0.53
2023-01-08T13:21:55.309Z,0.37
2023-01-08T13:24:31.610Z,0.42
2023-01-08T13:27:23.926Z,0.36
2023-01-08T13:29:51.720Z,0.30
2023-01-08T13:32:27.431Z,0.49
2023-01-08T13:35:22.369Z,0.85
2023-01-08T13:37:51.043Z,0.95
2023-01-08T13:40:52.395Z,0.99
2023-01-08T13:43:22.808Z,0.71
2023-01-08T13:46:06.693Z,0.48
2023-01-08T13:48:42.282Z,0.35
2023-01-08T13:51:34.338Z,0.58
2023-01-08T13:54:15.907Z,0.49
2023-01-08T13:56:44.404Z,0.59
2023-01-08T13:59:28.061Z,0.53
2023-01-08T14:01:56.361Z,0.37
2023-01-08T14:04:24.059Z,0.45
2023-01-08T14:06:52.546Z,0.33
2023-01-08T14:09:23.208Z,0.42
2023-01-08T14:11:52.989Z,0.45
2023-01-08T14:14:23.044Z,0.74
2023-01-08T14:16:52.445Z,0.60
2023-01-08T14:19:22.262Z,0.81
2023-01-08T14:21:55.667Z,0.69
2023-01-08T14:24:23.970Z,0.56
2023-01-08T14:26:52.761Z,0.42
2023-01-08T14:29:22.631Z,0.42
2023-01-08T14:31:51.204Z,0.38
2023-01-08T14:34:19.357Z,0.55
2023-01-08T14:36:51.191Z,0.53
2023-01-08T14:39:25.066Z,0.42
2023-01-08T14:41:55.302Z,0.48
2023-01-08T14:44:32.779Z,0.35
2023-01-08T14:47:16.160Z,1.71
2023-01-08T14:49:43.080Z,1.11
2023-01-08T14:52:13.224Z,1.48
2023-01-08T14:54:48.426Z,0.90
2023-01-08T14:57:17.304Z,0.53
2023-01-08T14:59:53.664Z,2.56
2023-01-08T15:02:25.824Z,3.29
2023-01-08T15:05:12.862Z,3.11
2023-01-08T15:07:47.439Z,1.79
2023-01-08T15:10:41.662Z,1.05
2023-01-08T15:13:24.908Z,1.26
2023-01-08T15:15:56.118Z,1.12
2023-01-08T15:18:25.467Z,1.63
2023-01-08T15:20:53.600Z,1.12
2023-01-08T15:23:33.549Z,0.98
2023-01-08T15:26:02.682Z,0.57
2023-01-08T15:28:30.636Z,0.36
2023-01-08T15:30:58.037Z,0.33
2023-01-08T15:33:28.246Z,0.40
2023-01-08T15:35:57.139Z,0.24
2023-01-08T15:38:24.937Z,0.17
2023-01-08T15:40:52.198Z,0.14
2023-01-08T15:43:23.015Z,0.12
2023-01-08T15:45:50.021Z,0.11
2023-01-08T15:48:16.906Z,0.15
2023-01-08T15:50:48.461Z,0.15
2023-01-08T15:53:20.457Z,0.13
2023-01-08T15:55:51.389Z,0.32
2023-01-08T15:58:20.911Z,0.30
2023-01-08T16:00:48.283Z,0.35
2023-01-08T16:03:16.299Z,1.21
2023-01-08T16:05:43.215Z,3.09
2023-01-08T16:08:11.024Z,1.82
2023-01-08T16:10:39.041Z,2.24
2023-01-08T16:13:12.000Z,1.29
2023-01-08T16:15:40.912Z,0.89
2023-01-08T16:18:07.652Z,0.62
2023-01-08T16:20:35.372Z,0.38
2023-01-08T16:23:03.281Z,0.25
2023-01-08T16:25:31.469Z,0.16
2023-01-08T16:27:58.705Z,0.25
2023-01-08T16:30:25.765Z,1.40
2023-01-08T16:32:55.065Z,0.84
2023-01-08T16:35:23.261Z,0.65
2023-01-08T16:37:50.124Z,0.47
2023-01-08T16:40:17.217Z,0.44
2023-01-08T16:42:43.968Z,0.55
2023-01-08T16:45:12.329Z,0.29
2023-01-08T16:47:40.225Z,0.16
2023-01-08T16:50:12.047Z,0.12
2023-01-08T16:52:39.290Z,0.42
2023-01-08T16:55:07.756Z,0.22
2023-01-08T16:57:34.888Z,0.19
2023-01-08T17:00:01.861Z,0.15
2023-01-08T17:02:28.938Z,0.08
2023-01-08T17:04:55.698Z,0.11
2023-01-08T17:07:24.473Z,0.06
2023-01-08T17:09:51.217Z,0.08
2023-01-08T17:12:22.562Z,0.04
2023-01-08T17:14:50.994Z,0.06
2023-01-08T17:17:18.073Z,0.19
2023-01-08T17:19:44.859Z,0.19
2023-01-08T17:22:11.765Z,0.27
2023-01-08T17:24:40.558Z,0.14
2023-01-08T17:27:07.886Z,0.12
2023-01-08T17:29:34.851Z,0.08
2023-01-08T17:32:02.652Z,0.04
2023-01-08T17:34:29.429Z,0.07
2023-01-08T17:36:56.290Z,0.28
2023-01-08T17:39:24.489Z,0.31
2023-01-08T17:41:53.711Z,0.16
2023-01-08T17:44:21.399Z,0.18
2023-01-08T17:46:49.589Z,1.16
2023-01-08T17:49:18.357Z,1.98
2023-01-08T17:51:46.305Z,1.34
2023-01-08T17:54:14.569Z,1.09
2023-01-08T17:56:42.595Z,0.78
2023-01-08T17:59:16.110Z,0.68
2023-01-08T18:01:43.223Z,0.41
2023-01-08T18:04:11.494Z,0.22
2023-01-08T18:06:38.775Z,0.12
2023-01-08T18:09:09.683Z,0.06
2023-01-08T18:11:36.483Z,0.03
2023-01-08T18:14:07.000Z,0.02
2023-01-08T18:16:35.424Z,0.01
2023-01-08T18:19:03.289Z,0.00
2023-01-08T18:21:30.093Z,1.82
2023-01-08T18:23:57.122Z,1.17
2023-01-08T18:26:25.674Z,0.95
2023-01-08T18:28:52.599Z,0.81
2023-01-08T18:31:19.420Z,0.90
2023-01-08T18:33:52.163Z,0.48
2023-01-08T18:36:20.093Z,0.26
2023-01-08T18:38:47.865Z,0.14
2023-01-08T18:41:16.304Z,0.12
2023-01-08T18:43:46.210Z,0.11
2023-01-08T18:46:14.040Z,0.06
2023-01-08T18:48:40.849Z,0.15
2023-01-08T18:51:09.142Z,0.23
2023-01-08T18:53:36.289Z,21.78
2023-01-08T18:56:03.934Z,11.65
2023-01-08T18:58:31.000Z,6.24
2023-01-08T19:01:03.404Z,3.34
2023-01-08T19:03:30.209Z,1.88
2023-01-08T19:05:59.651Z,1.00
2023-01-08T19:08:27.908Z,0.53
2023-01-08T19:10:55.826Z,0.50
2023-01-08T19:13:22.976Z,0.27
2023-01-08T19:15:54.528Z,0.14
2023-01-08T19:18:21.354Z,0.08
2023-01-08T19:20:50.446Z,0.04
2023-01-08T19:23:17.310Z,0.03
2023-01-08T19:25:46.513Z,0.02
2023-01-08T19:28:13.353Z,0.01
2023-01-08T19:30:41.878Z,0.01
2023-01-08T19:33:09.907Z,0.00
2023-01-08T19:35:38.289Z,0.09
2023-01-08T19:38:05.221Z,0.05
2023-01-08T19:40:32.460Z,0.02
2023-01-08T19:43:00.613Z,0.01
2023-01-08T19:45:28.949Z,0.16
2023-01-08T19:47:55.931Z,0.13
2023-01-08T19:50:24.968Z,0.07
2023-01-08T19:52:52.787Z,0.04
2023-01-08T19:55:22.477Z,0.02
2023-01-08T19:57:50.349Z,0.01
2023-01-08T20:00:24.317Z,0.01
2023-01-08T20:02:52.454Z,0.00
2023-01-08T20:05:20.471Z,0.00
2023-01-08T20:07:47.476Z,0.00
2023-01-08T20:10:15.155Z,0.00
2023-01-08T20:12:45.095Z,0.00
2023-01-08T20:15:14.150Z,0.01
2023-01-08T20:17:42.534Z,0.16
2023-01-08T20:20:12.100Z,0.08
2023-01-08T20:22:39.963Z,0.04
2023-01-08T20:25:07.637Z,0.02
2023-01-08T20:27:34.374Z,0.01
2023-01-08T20:30:03.519Z,0.01
2023-01-08T20:32:30.240Z,0.24
2023-01-08T20:34:58.708Z,0.50
2023-01-08T20:37:25.486Z,0.26
2023-01-08T20:39:53.983Z,0.14
2023-01-08T20:42:32.904Z,0.07
2023-01-08T20:45:01.836Z,0.06
2023-01-08T20:47:28.828Z,0.03
2023-01-08T20:49:58.059Z,0.02
2023-01-08T20:52:26.047Z,0.01
2023-01-08T20:54:52.813Z,0.01
2023-01-08T20:57:19.830Z,0.00
2023-01-08T20:59:48.352Z,0.05
2023-01-08T21:02:15.358Z,0.05
2023-01-08T21:04:42.120Z,0.03
2023-01-08T21:07:12.714Z,0.02
2023-01-08T21:09:40.462Z,0.01
2023-01-08T21:12:10.499Z,0.11
2023-01-08T21:14:38.539Z,0.09
2023-01-08T21:17:05.536Z,0.19
2023-01-08T21:19:33.585Z,0.25
2023-01-08T21:22:00.439Z,0.34
2023-01-08T21:24:28.929Z,0.31
2023-01-08T21:26:56.980Z,0.24
2023-01-08T21:29:23.743Z,0.22
2023-01-08T21:31:50.915Z,0.33
2023-01-08T21:34:17.742Z,0.28
2023-01-08T21:36:44.762Z,0.23
2023-01-08T21:39:11.623Z,0.12
2023-01-08T21:41:40.806Z,0.06
2023-01-08T21:44:12.460Z,0.08
2023-01-08T21:46:39.197Z,0.09
2023-01-08T21:49:06.435Z,0.12
2023-01-08T21:51:33.575Z,0.11
2023-01-08T21:54:05.951Z,0.06
2023-01-08T21:56:32.984Z,0.03
2023-01-08T21:59:01.521Z,0.02
2023-01-08T22:01:28.977Z,0.01
2023-01-08T22:03:57.282Z,0.00
2023-01-08T22:06:24.023Z,0.47
2023-01-08T22:08:52.734Z,0.25
2023-01-08T22:11:21.218Z,0.13
2023-01-08T22:13:49.181Z,0.07
2023-01-08T22:16:17.416Z,0.04
2023-01-08T22:18:46.383Z,0.02
2023-01-08T22:21:13.671Z,0.01
2023-01-08T22:23:40.549Z,0.01
2023-01-08T22:26:10.013Z,0.12
2023-01-08T22:28:38.453Z,0.07
2023-01-08T22:31:07.720Z,0.04
2023-01-08T22:33:36.494Z,0.56
2023-01-08T22:36:03.931Z,0.30
2023-01-08T22:38:31.077Z,0.22
2023-01-08T22:40:58.323Z,0.12
2023-01-08T22:43:25.253Z,0.23
2023-01-08T22:45:54.252Z,0.12
2023-01-08T22:48:21.502Z,0.16
2023-01-08T22:50:51.249Z,0.15
2023-01-08T22:53:18.271Z,0.16
2023-01-08T22:55:47.568Z,0.13
2023-01-08T22:58:15.136Z,0.37
2023-01-08T23:00:42.552Z,0.44
2023-01-08T23:03:09.670Z,0.28
2023-01-08T23:05:37.425Z,0.15
2023-01-08T23:08:06.519Z,0.08
2023-01-08T23:10:34.012Z,0.04
2023-01-08T23:13:01.219Z,0.42
2023-01-08T23:15:29.131Z,0.54
2023-01-08T23:17:57.262Z,0.34
2023-01-08T23:20:27.116Z,0.20
2023-01-08T23:22:56.352Z,0.11
2023-01-08T23:25:24.476Z,0.06
2023-01-08T23:27:52.492Z,0.03
2023-01-08T23:30:19.707Z,0.04
2023-01-08T23:32:46.586Z,0.05
2023-01-08T23:35:13.612Z,0.02
2023-01-08T23:37:41.495Z,0.01
2023-01-08T23:40:10.742Z,0.01
2023-01-08T23:42:40.103Z,0.02
2023-01-08T23:45:09.904Z,0.01
2023-01-08T23:47:38.189Z,0.00
2023-01-08T23:50:05.876Z,0.00
2023-01-08T23:52:33.908Z,0.07
2023-01-08T23:55:00.749Z,0.04
2023-01-08T23:57:27.593Z,0.02
2023-01-08T23:59:56.134Z,0.01
